Weather observations for the past three days for
Middleton Island Airport
| Date | Time (akdt) | Wind (mph) | Vis. (mi.) | Weather | Sky Cond. | Temperature (ºF) | Relative Humidity | Wind Chill (°F) | Heat Index (°F) | Pressure | Precipitation (in) | ||||||
|---|---|---|---|---|---|---|---|---|---|---|---|---|---|---|---|---|---|
| Air | Dwpt | 6 hour | altimeter (in) | sea level (mb) | 1 hr | 3 hr | 6 hr | ||||||||||
| Max. | Min. | ||||||||||||||||
| 01 | 12:56 | NW 9 | 10.00 | Fair | CLR | 55.9 | 50 | 81% | 29.65 | 1004.2 | |||||||
| 01 | 11:56 | Vrbl 7 | 10.00 | Fair | CLR | 55.9 | 51.1 | 84% | 29.64 | 1003.9 | |||||||
| 01 | 10:56 | N 7 | 10.00 | Fair | CLR | 55 | 51.1 | 87% | 29.64 | 1003.7 | |||||||
| 01 | 09:56 | N 5 | 10.00 | Fair | CLR | 55 | 50 | 55 | 51.1 | 83% | 29.64 | 1003.6 | |||||
| 01 | 08:56 | N 8 | 10.00 | Fair | CLR | 54 | 50 | 87% | 29.63 | 1003.3 | |||||||
| 01 | 07:56 | N 7 | 10.00 | Fair | CLR | 53.1 | 50 | 89% | 29.62 | 1003.2 | |||||||
| 01 | 06:56 | NW 6 | 10.00 | Fair | CLR | 52 | 50 | 93% | 29.62 | 1002.9 | |||||||
| 01 | 05:56 | NW 7 | 7.00 | Fair | CLR | 52 | 50 | 93% | 29.61 | 1002.6 | |||||||
| 01 | 04:56 | N 5 | 10.00 | Fair | CLR | 52 | 50 | 93% | 29.59 | 1002.1 | |||||||
| 01 | 03:56 | N 5 | 10.00 | Fair | CLR | 52 | 48.9 | 54 | 52 | 89% | 29.58 | 1001.6 | |||||
| 01 | 02:56 | N 6 | 8.00 | Fair | CLR | 53.1 | 48.9 | 86% | 29.57 | 1001.3 | |||||||
| 01 | 01:56 | N 12 | 8.00 | Fair | CLR | 53.1 | 46.9 | 80% | 29.55 | 1000.7 | |||||||
| 01 | 00:56 | N 12 | 10.00 | Fair | CLR | 53.1 | 48.9 | 86% | 29.53 | 999.9 | |||||||
| 31 | 23:56 | N 14 G 20 | 10.00 | Fair | CLR | 53.1 | 48.9 | 86% | 29.51 | 999.2 | |||||||
| 31 | 22:56 | N 16 G 23 | 10.00 | Fair | CLR | 54 | 48 | 80% | 29.47 | 998.0 | |||||||
| 31 | 21:56 | N 20 | 10.00 | Fair | CLR | 54 | 46.9 | 54 | 50 | 77% | 29.44 | 997.0 | |||||
| 31 | 20:56 | N 21 G 26 | 10.00 | Overcast and Breezy | OVC055 | 54 | 46 | 75% | 29.42 | 996.2 | |||||||
| 31 | 19:56 | N 16 G 23 | 10.00 | Mostly Cloudy | BKN050 BKN070 | 53.1 | 46.9 | 80% | 29.39 | 995.3 | |||||||
| 31 | 18:56 | N 18 G 24 | 10.00 | Light Rain | FEW036 SCT044 OVC060 | 51.1 | 48 | 89% | 29.38 | 994.9 | |||||||
| 31 | 17:56 | N 15 G 28 | 10.00 | Overcast | BKN034 BKN043 OVC050 | 52 | 46 | 80% | 29.36 | 994.1 | |||||||
| 31 | 16:56 | N 20 G 28 | 10.00 | A Few Clouds | FEW016 | 53.1 | 48 | 83% | 29.33 | 993.3 | |||||||
| 31 | 15:56 | N 17 G 25 | 10.00 | Mostly Cloudy | FEW047 BKN060 BKN085 | 50 | 46.9 | 55 | 46.9 | 89% | 45 | 29.32 | 992.8 | 0.06 | |||
| 31 | 14:56 | N 15 G 21 | 10.00 | Light Rain | FEW013 BKN049 OVC065 | 48 | 46 | 93% | 43 | 29.33 | 993.2 | 0.05 | |||||
| 31 | 13:56 | N 17 G 21 | 10.00 | Light Rain | FEW020 SCT039 OVC049 | 48 | 46 | 93% | 42 | 29.34 | 993.6 | 0.01 | |||||
| 31 | 12:56 | W 21 G 28 | 10.00 | Overcast and Breezy | FEW019 BKN055 OVC075 | 53.1 | 48 | 83% | 29.32 | 993.0 | |||||||
| 31 | 11:56 | W 9 | 10.00 | Overcast | OVC100 | 55 | 50 | 83% | 29.35 | 993.9 | |||||||
| 31 | 10:56 | W 5 | 10.00 | Overcast | BKN065 OVC110 | 54 | 52 | 93% | 29.39 | 995.2 | |||||||
| 31 | 09:56 | Vrbl 3 | 10.00 | Overcast | BKN085 OVC110 | 55 | 54 | 55 | 52 | 96% | 29.42 | 996.4 | |||||
| 31 | 07:56 | W 6 | 9.00 | A Few Clouds | FEW065 | 52 | 52 | 100% | 29.48 | 998.3 | |||||||
| 31 | 06:56 | W 6 | 9.00 | Fair | CLR | 52 | 52 | 100% | 29.49 | 998.7 | |||||||
| 31 | 05:56 | NW 7 | 10.00 | Fair | CLR | 52 | 52 | 100% | 29.52 | 999.5 | |||||||
| 31 | 04:56 | NW 5 | 9.00 | Fair | CLR | 52 | 52 | 100% | 29.53 | 999.9 | |||||||
| 31 | 03:56 | NW 7 | 10.00 | Fair | CLR | 53.1 | 53.1 | 55.9 | 52 | 100% | 29.54 | 1000.4 | |||||
| 31 | 02:56 | W 5 | 7.00 | Mostly Cloudy | BKN009 | 53.1 | 53.1 | 100% | 29.56 | 1000.9 | |||||||
| 31 | 01:56 | Calm | 10.00 | A Few Clouds | FEW110 | 55 | 53.1 | 93% | 29.58 | 1001.7 | |||||||
| 31 | 00:56 | E 5 | 10.00 | Fair | CLR | 55 | 53.1 | 93% | 29.61 | 1002.5 | |||||||
| 30 | 23:56 | S 5 | 10.00 | Fair | CLR | 55 | 53.1 | 93% | 29.63 | 1003.4 | |||||||
| 30 | 22:56 | S 6 | 10.00 | Fair | CLR | 55 | 52 | 90% | 29.67 | 1004.6 | |||||||
| 30 | 21:56 | S 7 | 10.00 | Partly Cloudy | SCT120 | 54 | 52 | 61 | 53.1 | 93% | 29.69 | 1005.4 | |||||
| 30 | 20:56 | SE 7 | 10.00 | Partly Cloudy | SCT120 | 54 | 52 | 93% | 29.7 | 1005.9 | |||||||
| 30 | 19:56 | S 7 | 10.00 | Fair | CLR | 57 | 45 | 64% | 29.74 | 1007.1 | |||||||
| 30 | 18:56 | SW 5 | 10.00 | Fair | CLR | 55.9 | 48.9 | 77% | 29.77 | 1008.2 | |||||||
| 30 | 17:56 | Calm | 10.00 | Fair | CLR | 57 | 48 | 72% | 29.78 | 1008.6 | |||||||
| 30 | 16:56 | S 3 | 10.00 | Fair | CLR | 60.1 | 50 | 70% | 29.8 | 1008.9 | |||||||
| 30 | 15:56 | N 5 | 10.00 | Fair | CLR | 59 | 50 | 60.1 | 57 | 72% | 29.81 | 1009.5 | |||||
| 30 | 14:56 | N 6 | 10.00 | Fair | CLR | 60.1 | 51.1 | 72% | 29.82 | 1009.7 | |||||||
| 30 | 13:56 | N 6 | 10.00 | Fair | CLR | 57.9 | 52 | 81% | 29.84 | 1010.4 | |||||||
| 30 | 12:56 | Vrbl 3 | 10.00 | Fair | CLR | 57.9 | 52 | 81% | 29.84 | 1010.3 | |||||||
| 30 | 11:56 | N 7 | 10.00 | Fair | CLR | 57.9 | 51.1 | 78% | 29.84 | 1010.4 | |||||||
| 30 | 10:56 | N 6 | 10.00 | Fair | CLR | 57 | 52 | 83% | 29.83 | 1010.3 | |||||||
| 30 | 09:56 | N 8 | 10.00 | Fair | CLR | 57 | 51.1 | 57 | 54 | 81% | 29.82 | 1009.9 | |||||
| 30 | 08:56 | N 8 | 10.00 | Fair | CLR | 55 | 50 | 83% | 29.81 | 1009.6 | |||||||
| 30 | 07:56 | N 10 | 10.00 | Fair | CLR | 54 | 50 | 87% | 29.8 | 1009.2 | |||||||
| 30 | 06:56 | N 12 | 10.00 | Fair | CLR | 54 | 50 | 87% | 29.79 | 1008.8 | |||||||
| 30 | 05:56 | NW 15 | 10.00 | Fair | CLR | 55 | 50 | 83% | 29.78 | 1008.6 | |||||||
| 30 | 04:56 | NW 14 | 10.00 | Fair | CLR | 55 | 51.1 | 87% | 29.77 | 1008.1 | |||||||
| 30 | 03:56 | NW 16 | 10.00 | Fair | CLR | 55 | 51.1 | 55 | 53.1 | 87% | 29.76 | 1007.7 | |||||
| 30 | 02:56 | NW 14 | 10.00 | Fair | CLR | 55 | 51.1 | 87% | 29.75 | 1007.4 | |||||||
| 30 | 01:56 | W 9 | 10.00 | Fair | CLR | 53.1 | 51.1 | 93% | 29.74 | 1007.1 | |||||||
| 30 | 00:56 | W 7 | 10.00 | Fair | CLR | 53.1 | 52 | 96% | 29.73 | 1006.9 | |||||||
| 29 | 23:56 | W 7 | 10.00 | Fair | CLR | 53.1 | 53.1 | 100% | 29.72 | 1006.5 | |||||||
| 29 | 22:56 | W 8 | 10.00 | Fair | CLR | 54 | 53.1 | 97% | 29.71 | 1006.2 | |||||||
| 29 | 21:56 | W 7 | 10.00 | Fair | CLR | 54 | 54 | 57.9 | 54 | 100% | 29.7 | 1005.8 | |||||
| 29 | 20:56 | NW 9 | 10.00 | Fair | CLR | 54 | 54 | 100% | 29.7 | 1005.6 | |||||||
| 29 | 19:56 | W 10 | 10.00 | Fair | CLR | 55.9 | 55 | 97% | 29.7 | 1005.6 | |||||||
| 29 | 18:56 | W 13 G 17 | 10.00 | Fair | CLR | 57 | 55 | 93% | 29.69 | 1005.3 | |||||||
| 29 | 17:56 | W 13 G 18 | 10.00 | Fair | CLR | 57 | 54 | 90% | 29.68 | 1005.1 | |||||||
| 29 | 16:56 | W 15 G 21 | 10.00 | Fair | CLR | 57.9 | 54 | 87% | 29.68 | 1005.1 | |||||||
| 29 | 15:56 | W 16 G 22 | 10.00 | Fair | CLR | 57 | 54 | 57.9 | 53.1 | 90% | 29.68 | 1004.9 | |||||
| 29 | 14:56 | W 15 G 22 | 10.00 | Fair | CLR | 57 | 54 | 90% | 29.68 | 1004.9 | |||||||
| 29 | 13:56 | W 14 G 20 | 10.00 | Fair | CLR | 57 | 53.1 | 87% | 29.67 | 1004.8 | |||||||
| Date | Time (akdt) | Wind (mph) | Vis. (mi.) | Weather | Sky Cond. | Air | Dwpt | Max. | Min. | Relative Humidity | Wind Chill (°F) | Heat Index (°F) | altimeter (in) | sea level (mb) | 1 hr | 3 hr | 6 hr |
| 6 hour | |||||||||||||||||
| Temperature (ºF) | Pressure | Precipitation (in) | |||||||||||||||